Time;durP1;ratioP1;P1;durP2;ratioP2;P2;SDS_P1;SDS_P2;PMS_P1;PMS_P2;Temp;Humidity;BMP_temperature;BMP_pressure;BME280_temperature;BME280_humidity;BME280_pressure;Samples;Min_cycle;Max_cycle;Signal;HPM_P1;HPM_P2
2024/01/11 00:00:03;;;;;;;37.70;21.70;;;;;;;;;;4988451;28;20187;-71
2024/01/11 00:02:28;;;;;;;27.83;17.17;;;;;;;;;;4988075;28;20172;-71
2024/01/11 00:04:54;;;;;;;31.23;18.47;;;;;;;;;;4989945;28;20176;-71
2024/01/11 00:07:19;;;;;;;27.73;17.07;;;;;;;;;;4991266;28;20177;-71
2024/01/11 00:09:44;;;;;;;28.83;16.10;;;;;;;;;;4989068;28;20192;-71
2024/01/11 00:12:09;;;;;;;31.73;16.40;;;;;;;;;;4992494;28;20182;-71
2024/01/11 00:14:35;;;;;;;35.57;21.00;;;;;;;;;;4988710;28;20183;-70
2024/01/11 00:17:00;;;;;;;37.70;19.70;;;;;;;;;;4992716;28;20191;-71
2024/01/11 00:19:25;;;;;;;27.50;15.10;;;;;;;;;;4987526;28;20172;-70
2024/01/11 00:21:50;;;;;;;34.43;17.57;;;;;;;;;;4990147;28;20176;-71
2024/01/11 00:24:16;;;;;;;30.20;15.83;;;;;;;;;;4981931;28;20230;-71
2024/01/11 00:26:41;;;;;;;27.20;15.13;;;;;;;;;;4989166;28;20232;-71
2024/01/11 00:29:07;;;;;;;31.70;17.53;;;;;;;;;;4983970;28;20172;-71
2024/01/11 00:31:32;;;;;;;31.73;17.70;;;;;;;;;;4990842;28;20283;-70
2024/01/11 00:33:57;;;;;;;30.87;16.30;;;;;;;;;;4990159;28;20548;-71
2024/01/11 00:36:22;;;;;;;32.33;18.20;;;;;;;;;;4987066;28;20286;-71
2024/01/11 00:38:47;;;;;;;37.10;16.27;;;;;;;;;;4993978;28;20184;-71
2024/01/11 00:41:12;;;;;;;32.50;15.87;;;;;;;;;;4990131;28;20184;-71
2024/01/11 00:43:38;;;;;;;28.57;14.60;;;;;;;;;;4993763;28;20176;-71
2024/01/11 00:46:03;;;;;;;26.47;16.70;;;;;;;;;;4999008;28;20180;-71
2024/01/11 00:48:28;;;;;;;24.23;13.73;;;;;;;;;;5005888;28;20254;-71
2024/01/11 00:50:54;;;;;;;29.07;17.20;;;;;;;;;;5016645;28;20262;-72
2024/01/11 00:53:19;;;;;;;24.97;14.37;;;;;;;;;;4996401;28;20210;-71
2024/01/11 00:55:44;;;;;;;23.83;13.47;;;;;;;;;;5004242;28;20208;-71
2024/01/11 00:58:09;;;;;;;32.07;16.77;;;;;;;;;;4992907;28;20180;-71
2024/01/11 01:00:34;;;;;;;30.90;16.53;;;;;;;;;;4989681;28;20173;-70
2024/01/11 01:02:59;;;;;;;26.67;14.20;;;;;;;;;;4995801;28;20270;-70
2024/01/11 01:05:25;;;;;;;32.30;18.37;;;;;;;;;;4995657;28;20180;-70
2024/01/11 01:07:50;;;;;;;29.47;16.20;;;;;;;;;;4997263;28;20192;-71
2024/01/11 01:10:15;;;;;;;27.67;16.00;;;;;;;;;;4987640;28;20192;-71
2024/01/11 01:12:40;;;;;;;30.40;16.27;;;;;;;;;;4996818;28;20183;-72
2024/01/11 01:15:06;;;;;;;33.27;18.73;;;;;;;;;;4996441;28;20199;-70
2024/01/11 01:17:31;;;;;;;31.37;17.07;;;;;;;;;;4997870;28;20251;-71
2024/01/11 01:19:57;;;;;;;29.23;16.50;;;;;;;;;;5000587;28;20231;-72
2024/01/11 01:22:22;;;;;;;32.03;15.27;;;;;;;;;;4999090;28;20290;-71
2024/01/11 01:24:47;;;;;;;27.57;14.77;;;;;;;;;;4993373;28;20273;-70
2024/01/11 01:27:12;;;;;;;32.33;16.97;;;;;;;;;;4991474;28;20184;-71
2024/01/11 01:29:38;;;;;;;32.77;16.73;;;;;;;;;;4993872;28;20184;-70
2024/01/11 01:32:03;;;;;;;27.47;16.13;;;;;;;;;;4993414;28;20182;-70
2024/01/11 01:34:28;;;;;;;31.33;17.40;;;;;;;;;;4995848;28;20173;-71
2024/01/11 01:36:54;;;;;;;31.73;17.90;;;;;;;;;;4991514;28;20199;-71
2024/01/11 01:39:19;;;;;;;36.37;19.37;;;;;;;;;;4982047;28;20191;-71
2024/01/11 01:41:44;;;;;;;37.67;17.67;;;;;;;;;;4992533;28;20270;-70
2024/01/11 01:44:09;;;;;;;31.83;19.00;;;;;;;;;;4991375;28;20184;-71
2024/01/11 01:46:34;;;;;;;31.40;16.60;;;;;;;;;;4988066;28;20184;-70
2024/01/11 01:49:00;;;;;;;33.50;17.00;;;;;;;;;;4994080;28;20538;-71
2024/01/11 01:51:26;;;;;;;38.37;17.00;;;;;;;;;;4994065;28;20227;-70
2024/01/11 01:53:52;;;;;;;29.97;14.53;;;;;;;;;;4993538;28;20195;-70
2024/01/11 01:56:19;;;;;;;29.43;15.10;;;;;;;;;;4992248;28;20216;-71
2024/01/11 01:58:44;;;;;;;30.50;17.90;;;;;;;;;;4996173;28;20180;-71
2024/01/11 02:01:09;;;;;;;30.97;16.43;;;;;;;;;;4986646;28;20212;-71
2024/01/11 02:03:35;;;;;;;28.47;15.00;;;;;;;;;;4988350;28;20210;-70
2024/01/11 02:06:00;;;;;;;28.03;15.53;;;;;;;;;;4991621;28;20183;-71
2024/01/11 02:08:27;;;;;;;31.80;15.93;;;;;;;;;;4994571;28;20202;-71
2024/01/11 02:10:52;;;;;;;29.60;17.20;;;;;;;;;;4994973;28;20183;-70
2024/01/11 02:13:17;;;;;;;35.13;18.67;;;;;;;;;;4994702;28;20188;-70
2024/01/11 02:15:43;;;;;;;29.87;15.90;;;;;;;;;;4993575;28;20199;-70
2024/01/11 02:18:09;;;;;;;29.27;16.83;;;;;;;;;;4996530;28;20193;-71
2024/01/11 02:20:35;;;;;;;31.73;14.50;;;;;;;;;;4991530;28;20180;-71
2024/01/11 02:23:07;;;;;;;29.33;16.00;;;;;;;;;;4998926;28;20176;-70
2024/01/11 02:25:33;;;;;;;28.53;14.63;;;;;;;;;;4998149;28;20198;-71
2024/01/11 02:27:58;;;;;;;30.70;15.70;;;;;;;;;;4992665;28;20180;-71
2024/01/11 02:30:23;;;;;;;32.27;17.60;;;;;;;;;;4993192;28;20224;-70
2024/01/11 02:32:50;;;;;;;27.30;15.37;;;;;;;;;;4992768;28;20215;-71
2024/01/11 02:35:15;;;;;;;32.17;17.20;;;;;;;;;;4995113;28;20295;-70
2024/01/11 02:37:40;;;;;;;29.97;15.70;;;;;;;;;;4984115;28;20263;-70
2024/01/11 02:40:07;;;;;;;31.87;16.10;;;;;;;;;;4990051;28;20176;-70
2024/01/11 02:42:33;;;;;;;27.20;14.37;;;;;;;;;;4994444;28;20175;-71
2024/01/11 02:44:58;;;;;;;27.17;15.20;;;;;;;;;;4992960;28;20203;-71
2024/01/11 02:47:23;;;;;;;30.20;14.13;;;;;;;;;;4987745;28;20191;-71
2024/01/11 02:49:48;;;;;;;26.37;13.33;;;;;;;;;;4996424;28;20246;-70
2024/01/11 02:52:13;;;;;;;28.83;16.83;;;;;;;;;;4991853;28;20243;-70
2024/01/11 02:54:39;;;;;;;35.07;17.97;;;;;;;;;;4990350;28;20195;-71
2024/01/11 02:57:04;;;;;;;25.57;13.57;;;;;;;;;;4988976;28;20195;-70
2024/01/11 02:59:29;;;;;;;30.30;14.63;;;;;;;;;;4990162;28;20215;-70
2024/01/11 03:01:54;;;;;;;26.37;13.43;;;;;;;;;;4995271;28;20270;-70
2024/01/11 03:04:19;;;;;;;30.03;15.37;;;;;;;;;;4991867;28;20278;-70
2024/01/11 03:06:45;;;;;;;28.13;14.90;;;;;;;;;;4992872;28;20187;-70
2024/01/11 03:09:10;;;;;;;23.33;12.83;;;;;;;;;;4993509;28;20180;-71
2024/01/11 03:11:37;;;;;;;30.20;15.10;;;;;;;;;;4990944;28;20212;-70
2024/01/11 03:14:02;;;;;;;30.33;15.37;;;;;;;;;;4990490;28;20188;-72
2024/01/11 03:16:27;;;;;;;31.53;15.23;;;;;;;;;;4991710;28;20214;-70
2024/01/11 03:18:53;;;;;;;31.50;15.40;;;;;;;;;;4988610;28;20220;-71
2024/01/11 03:21:18;;;;;;;32.00;15.80;;;;;;;;;;4986498;28;20180;-71
2024/01/11 03:23:43;;;;;;;26.57;11.73;;;;;;;;;;5004934;28;20180;-70
2024/01/11 03:26:13;;;;;;;32.60;17.40;;;;;;;;;;4989631;28;20180;-70
2024/01/11 03:28:38;;;;;;;28.80;15.87;;;;;;;;;;4981547;28;20187;-70
2024/01/11 03:31:03;;;;;;;27.33;14.60;;;;;;;;;;4982532;28;20270;-70
2024/01/11 03:33:28;;;;;;;27.17;14.73;;;;;;;;;;4991478;28;20186;-70
2024/01/11 03:35:53;;;;;;;35.63;14.53;;;;;;;;;;4993299;28;20212;-70
2024/01/11 03:38:19;;;;;;;27.63;15.60;;;;;;;;;;4990685;28;20295;-71
2024/01/11 03:40:44;;;;;;;32.00;15.60;;;;;;;;;;4992241;28;20455;-70
2024/01/11 03:43:09;;;;;;;25.97;14.73;;;;;;;;;;4974080;28;20188;-70
2024/01/11 03:45:34;;;;;;;27.60;15.17;;;;;;;;;;4991372;28;20244;-70
2024/01/11 03:47:59;;;;;;;35.50;17.57;;;;;;;;;;4990055;28;20471;-70
2024/01/11 03:50:24;;;;;;;31.70;15.27;;;;;;;;;;4989682;28;20226;-70
2024/01/11 03:52:50;;;;;;;26.63;14.07;;;;;;;;;;4989035;28;20234;-71
2024/01/11 03:55:15;;;;;;;30.97;15.53;;;;;;;;;;4988324;28;20219;-71
2024/01/11 03:57:40;;;;;;;32.90;14.67;;;;;;;;;;4991055;28;20172;-70
2024/01/11 04:00:09;;;;;;;31.43;15.63;;;;;;;;;;4990872;28;20182;-71
2024/01/11 04:02:34;;;;;;;28.17;15.83;;;;;;;;;;4992460;28;20675;-71
2024/01/11 04:04:59;;;;;;;35.30;15.23;;;;;;;;;;4993059;28;20180;-71
2024/01/11 04:07:26;;;;;;;33.03;15.67;;;;;;;;;;4992299;28;20191;-70
2024/01/11 04:09:51;;;;;;;34.90;17.87;;;;;;;;;;4991416;28;20246;-71
2024/01/11 04:12:16;;;;;;;29.37;16.47;;;;;;;;;;4983870;28;20188;-70
2024/01/11 04:14:41;;;;;;;28.77;17.33;;;;;;;;;;4990931;28;20188;-71
2024/01/11 04:17:06;;;;;;;34.00;17.07;;;;;;;;;;4987768;28;20184;-70
2024/01/11 04:19:32;;;;;;;34.27;19.27;;;;;;;;;;4991115;28;20172;-70
2024/01/11 04:21:57;;;;;;;34.40;16.50;;;;;;;;;;4995483;28;20210;-71
2024/01/11 04:24:23;;;;;;;28.60;15.60;;;;;;;;;;4999651;28;20195;-70
2024/01/11 04:26:48;;;;;;;32.37;15.83;;;;;;;;;;4995483;28;20203;-70
2024/01/11 04:29:13;;;;;;;34.70;17.17;;;;;;;;;;4984108;28;20188;-70
2024/01/11 04:31:38;;;;;;;31.67;16.97;;;;;;;;;;4991276;28;20184;-70
2024/01/11 04:34:03;;;;;;;37.87;17.73;;;;;;;;;;4999924;28;20247;-72
2024/01/11 04:36:28;;;;;;;36.03;19.10;;;;;;;;;;4990356;28;20196;-70
2024/01/11 04:38:54;;;;;;;38.23;19.83;;;;;;;;;;4996222;28;20188;-71
2024/01/11 04:41:19;;;;;;;35.97;18.97;;;;;;;;;;4995617;28;20187;-70
2024/01/11 04:43:44;;;;;;;40.50;20.80;;;;;;;;;;4994604;28;20230;-71
2024/01/11 04:46:13;;;;;;;36.30;19.03;;;;;;;;;;4994675;28;20180;-70
2024/01/11 04:48:38;;;;;;;39.30;19.33;;;;;;;;;;4991437;28;20259;-71
2024/01/11 04:51:03;;;;;;;37.87;21.63;;;;;;;;;;4976471;28;20760;-70
2024/01/11 04:53:29;;;;;;;33.10;19.20;;;;;;;;;;4993810;28;20171;-71
2024/01/11 04:55:54;;;;;;;39.53;21.27;;;;;;;;;;4993384;28;20267;-70
2024/01/11 04:58:19;;;;;;;34.73;17.53;;;;;;;;;;4995547;28;20172;-71
2024/01/11 05:00:44;;;;;;;33.20;16.27;;;;;;;;;;5010165;28;20203;-70
2024/01/11 05:03:09;;;;;;;36.93;17.90;;;;;;;;;;4984203;28;20219;-71
2024/01/11 05:05:34;;;;;;;38.83;20.50;;;;;;;;;;5000159;28;20234;-70
2024/01/11 05:08:00;;;;;;;34.90;18.13;;;;;;;;;;4994410;28;20184;-72
2024/01/11 05:10:25;;;;;;;41.17;20.40;;;;;;;;;;4994587;28;20216;-70
2024/01/11 05:12:50;;;;;;;33.60;19.53;;;;;;;;;;4998245;28;20184;-70
2024/01/11 05:15:15;;;;;;;37.83;18.70;;;;;;;;;;5000366;28;20200;-71
2024/01/11 05:17:42;;;;;;;36.03;16.47;;;;;;;;;;5004948;28;20188;-70
2024/01/11 05:20:07;;;;;;;38.20;18.53;;;;;;;;;;4994083;28;20176;-71
2024/01/11 05:22:33;;;;;;;31.43;18.07;;;;;;;;;;4993338;28;20180;-71
2024/01/11 05:24:58;;;;;;;31.83;16.50;;;;;;;;;;4987221;28;20188;-70
2024/01/11 05:27:23;;;;;;;36.20;18.63;;;;;;;;;;4982922;28;20303;-70
2024/01/11 05:29:48;;;;;;;35.87;17.90;;;;;;;;;;4997240;28;20262;-70
2024/01/11 05:32:14;;;;;;;25.00;15.90;;;;;;;;;;4988217;28;20186;-70
2024/01/11 05:34:39;;;;;;;32.80;20.47;;;;;;;;;;4984907;28;20227;-70
2024/01/11 05:37:04;;;;;;;40.00;19.00;;;;;;;;;;4986840;28;20216;-71
2024/01/11 05:39:30;;;;;;;46.60;25.17;;;;;;;;;;4997263;28;20186;-70
2024/01/11 05:41:58;;;;;;;38.93;21.10;;;;;;;;;;4984526;28;20177;-70
2024/01/11 05:44:23;;;;;;;45.87;22.00;;;;;;;;;;4991134;28;20204;-71
2024/01/11 05:46:49;;;;;;;52.30;24.30;;;;;;;;;;4996639;28;20187;-70
2024/01/11 05:49:14;;;;;;;52.30;27.33;;;;;;;;;;4985239;28;20184;-71
2024/01/11 05:51:40;;;;;;;45.03;22.83;;;;;;;;;;4991224;28;20292;-71
2024/01/11 05:54:05;;;;;;;44.43;23.40;;;;;;;;;;4990218;28;20212;-70
2024/01/11 05:56:30;;;;;;;48.57;24.80;;;;;;;;;;4997856;28;20196;-71
2024/01/11 05:58:55;;;;;;;41.37;20.33;;;;;;;;;;4992297;28;20183;-70
2024/01/11 06:01:21;;;;;;;42.03;20.23;;;;;;;;;;4988632;28;20168;-72
2024/01/11 06:03:47;;;;;;;40.23;19.83;;;;;;;;;;4976550;28;20180;-74
2024/01/11 06:06:12;;;;;;;22.03;13.77;;;;;;;;;;4983411;28;20188;-75
2024/01/11 06:08:37;;;;;;;47.97;24.10;;;;;;;;;;4995308;28;20172;-75
2024/01/11 06:11:03;;;;;;;30.77;16.43;;;;;;;;;;4975863;28;20192;-75
2024/01/11 06:13:29;;;;;;;46.67;23.53;;;;;;;;;;4977740;28;20250;-75
2024/01/11 06:15:54;;;;;;;34.97;18.07;;;;;;;;;;4989594;28;20230;-75
2024/01/11 06:18:19;;;;;;;37.43;18.73;;;;;;;;;;4980671;28;20271;-75
2024/01/11 06:20:44;;;;;;;35.93;19.23;;;;;;;;;;4995226;28;20180;-75
2024/01/11 06:23:10;;;;;;;36.63;17.40;;;;;;;;;;4985168;28;20183;-74
2024/01/11 06:25:35;;;;;;;38.93;19.73;;;;;;;;;;4995420;28;20246;-75
2024/01/11 06:28:02;;;;;;;27.83;15.83;;;;;;;;;;4994080;28;20180;-75
2024/01/11 06:30:27;;;;;;;30.13;16.13;;;;;;;;;;4985322;28;20184;-75
2024/01/11 06:32:52;;;;;;;36.73;19.80;;;;;;;;;;4992958;28;20267;-74
2024/01/11 06:35:18;;;;;;;28.93;13.70;;;;;;;;;;4982827;28;20209;-74
2024/01/11 06:37:43;;;;;;;29.17;18.83;;;;;;;;;;4993200;28;20176;-75
2024/01/11 06:40:08;;;;;;;40.27;22.43;;;;;;;;;;4980923;28;20183;-74
2024/01/11 06:42:34;;;;;;;41.57;22.83;;;;;;;;;;4988438;28;20199;-74
2024/01/11 06:44:59;;;;;;;33.77;18.33;;;;;;;;;;5010073;28;20218;-75
2024/01/11 06:47:25;;;;;;;57.70;25.13;;;;;;;;;;4997847;28;20172;-75
2024/01/11 06:49:50;;;;;;;88.30;40.40;;;;;;;;;;4998841;28;20224;-75
2024/01/11 06:52:15;;;;;;;46.77;22.77;;;;;;;;;;4987701;28;20185;-74
2024/01/11 06:54:41;;;;;;;55.73;22.87;;;;;;;;;;4984403;28;20225;-75
2024/01/11 06:57:07;;;;;;;41.13;20.57;;;;;;;;;;5008954;28;20207;-75
2024/01/11 06:59:32;;;;;;;43.27;22.80;;;;;;;;;;4996689;28;20187;-74
2024/01/11 07:01:57;;;;;;;47.73;22.33;;;;;;;;;;4994169;28;20207;-75
2024/01/11 07:04:22;;;;;;;40.50;23.80;;;;;;;;;;5009781;28;20204;-76
2024/01/11 07:06:48;;;;;;;48.43;22.10;;;;;;;;;;4994850;28;20180;-75
2024/01/11 07:09:14;;;;;;;43.17;23.77;;;;;;;;;;5001096;28;20190;-76
2024/01/11 07:11:39;;;;;;;38.77;18.00;;;;;;;;;;4996345;28;20501;-76
2024/01/11 07:14:04;;;;;;;45.00;17.07;;;;;;;;;;4997166;28;20206;-76
2024/01/11 07:16:30;;;;;;;38.67;20.43;;;;;;;;;;4993152;28;20417;-77
2024/01/11 07:18:55;;;;;;;49.97;24.83;;;;;;;;;;4997301;28;20198;-75
2024/01/11 07:21:29;;;;;;;38.40;19.90;;;;;;;;;;4990602;28;20235;-75
2024/01/11 07:23:55;;;;;;;46.37;25.80;;;;;;;;;;4992242;28;20178;-76
2024/01/11 07:26:21;;;;;;;49.40;25.20;;;;;;;;;;4993290;28;20176;-75
2024/01/11 07:28:48;;;;;;;44.10;26.17;;;;;;;;;;4997737;28;20199;-76
2024/01/11 07:31:13;;;;;;;50.43;24.87;;;;;;;;;;4990839;28;20257;-75
2024/01/11 07:33:38;;;;;;;48.07;27.13;;;;;;;;;;4997033;28;20199;-76
2024/01/11 07:36:05;;;;;;;42.13;21.43;;;;;;;;;;4990164;28;20285;-76
2024/01/11 07:38:30;;;;;;;54.63;26.80;;;;;;;;;;4984649;28;20176;-76
2024/01/11 07:40:55;;;;;;;55.17;30.40;;;;;;;;;;4986797;28;20275;-75
2024/01/11 07:43:21;;;;;;;53.60;29.70;;;;;;;;;;4990439;28;20222;-76
2024/01/11 07:45:46;;;;;;;51.57;29.83;;;;;;;;;;5004299;28;20175;-75
2024/01/11 07:48:11;;;;;;;65.90;38.03;;;;;;;;;;4997712;28;20176;-75
2024/01/11 07:50:37;;;;;;;62.17;32.40;;;;;;;;;;4996141;28;20238;-76
2024/01/11 07:53:02;;;;;;;53.43;32.07;;;;;;;;;;5001888;28;20241;-75
2024/01/11 07:55:27;;;;;;;47.00;27.77;;;;;;;;;;4996428;28;20294;-76
2024/01/11 07:57:52;;;;;;;50.93;24.50;;;;;;;;;;4995377;28;20183;-76
2024/01/11 08:00:17;;;;;;;41.47;24.63;;;;;;;;;;4992128;28;20187;-75
2024/01/11 08:02:43;;;;;;;44.27;21.03;;;;;;;;;;4993227;28;20259;-76
2024/01/11 08:05:08;;;;;;;38.00;19.70;;;;;;;;;;5014572;28;20180;-76
2024/01/11 08:07:33;;;;;;;34.23;19.00;;;;;;;;;;4996728;28;20172;-76
2024/01/11 08:09:59;;;;;;;33.40;18.20;;;;;;;;;;4990390;28;20231;-76
2024/01/11 08:12:25;;;;;;;35.87;19.13;;;;;;;;;;4979980;28;20266;-76
2024/01/11 08:14:50;;;;;;;34.37;18.07;;;;;;;;;;5000583;28;20184;-75
2024/01/11 08:17:15;;;;;;;23.57;11.80;;;;;;;;;;4990285;28;20242;-76
2024/01/11 08:19:42;;;;;;;33.10;14.27;;;;;;;;;;4989122;28;20188;-76
2024/01/11 08:22:07;;;;;;;18.93;10.77;;;;;;;;;;4983503;28;20234;-76
2024/01/11 08:24:34;;;;;;;33.77;19.40;;;;;;;;;;4996680;28;20184;-76
2024/01/11 08:27:00;;;;;;;24.87;13.50;;;;;;;;;;4993861;28;20184;-75
2024/01/11 08:29:25;;;;;;;31.67;15.90;;;;;;;;;;4989372;28;20263;-76
2024/01/11 08:31:50;;;;;;;27.87;15.73;;;;;;;;;;4993632;28;20183;-76
2024/01/11 08:34:16;;;;;;;22.30;11.70;;;;;;;;;;4989693;28;20271;-76
2024/01/11 08:36:41;;;;;;;30.27;13.43;;;;;;;;;;4991982;28;20210;-76
2024/01/11 08:39:07;;;;;;;29.20;16.13;;;;;;;;;;4993338;28;20195;-77
2024/01/11 08:41:33;;;;;;;30.03;17.13;;;;;;;;;;4993747;28;20180;-76
2024/01/11 08:43:58;;;;;;;30.60;14.53;;;;;;;;;;4994231;28;20175;-77
2024/01/11 08:46:27;;;;;;;48.40;25.60;;;;;;;;;;5000268;28;20180;-77
2024/01/11 08:48:52;;;;;;;17.53;8.37;;;;;;;;;;4994066;28;20194;-78
2024/01/11 08:51:18;;;;;;;27.03;14.73;;;;;;;;;;4996629;28;20228;-78
2024/01/11 08:53:43;;;;;;;10.93;8.00;;;;;;;;;;5019667;28;20191;-78
2024/01/11 08:56:08;;;;;;;27.90;13.47;;;;;;;;;;4996749;28;20346;-78
2024/01/11 08:58:33;;;;;;;32.73;18.37;;;;;;;;;;4990722;28;20187;-78
2024/01/11 09:00:59;;;;;;;24.17;12.17;;;;;;;;;;4991643;28;20258;-78
2024/01/11 09:03:24;;;;;;;30.90;17.27;;;;;;;;;;4999628;28;20180;-79
2024/01/11 09:05:49;;;;;;;36.07;20.43;;;;;;;;;;4995554;28;20180;-79
2024/01/11 09:08:15;;;;;;;30.27;14.30;;;;;;;;;;4999497;28;20201;-80
2024/01/11 09:10:41;;;;;;;41.33;20.90;;;;;;;;;;4996219;28;20432;-80
2024/01/11 09:13:06;;;;;;;43.60;25.00;;;;;;;;;;5002123;28;20183;-80
2024/01/11 09:15:31;;;;;;;48.37;23.93;;;;;;;;;;5003356;28;20200;-80
2024/01/11 09:18:00;;;;;;;44.33;22.77;;;;;;;;;;5003847;28;20202;-80
2024/01/11 09:20:25;;;;;;;49.07;27.30;;;;;;;;;;4993278;28;20226;-80
2024/01/11 09:22:50;;;;;;;29.23;14.73;;;;;;;;;;5000318;28;20172;-80
2024/01/11 09:25:15;;;;;;;50.63;28.27;;;;;;;;;;4997014;28;20188;-80
2024/01/11 09:27:40;;;;;;;46.67;24.20;;;;;;;;;;4999212;28;20180;-81
2024/01/11 09:30:06;;;;;;;47.13;28.40;;;;;;;;;;4993921;28;20182;-80
2024/01/11 09:32:31;;;;;;;48.90;26.13;;;;;;;;;;4993321;28;20185;-81
2024/01/11 09:34:56;;;;;;;44.57;24.63;;;;;;;;;;4981813;28;20249;-80
2024/01/11 09:37:22;;;;;;;62.90;32.17;;;;;;;;;;4989996;28;20204;-79
2024/01/11 09:39:47;;;;;;;44.90;24.90;;;;;;;;;;4994173;28;20173;-80
2024/01/11 09:42:12;;;;;;;39.63;21.40;;;;;;;;;;5016050;28;20259;-79
2024/01/11 09:44:41;;;;;;;41.70;21.23;;;;;;;;;;4999596;28;20168;-80
2024/01/11 09:47:07;;;;;;;45.33;26.27;;;;;;;;;;5004867;28;20191;-79
2024/01/11 09:49:33;;;;;;;50.23;29.93;;;;;;;;;;5004335;28;20204;-79
2024/01/11 09:51:59;;;;;;;51.93;28.70;;;;;;;;;;5001251;28;20271;-80
2024/01/11 09:54:25;;;;;;;45.27;23.17;;;;;;;;;;4999961;28;20195;-80
2024/01/11 09:56:51;;;;;;;31.20;17.67;;;;;;;;;;4995626;28;20222;-79
2024/01/11 09:59:18;;;;;;;44.17;25.57;;;;;;;;;;4999806;28;20195;-79
2024/01/11 10:01:43;;;;;;;48.13;25.03;;;;;;;;;;5011232;28;20178;-79
2024/01/11 10:04:09;;;;;;;50.33;28.20;;;;;;;;;;4999366;28;20180;-79
2024/01/11 10:06:38;;;;;;;48.63;28.50;;;;;;;;;;4998680;28;21762;-80
2024/01/11 10:09:03;;;;;;;52.20;28.60;;;;;;;;;;4998833;28;20192;-80
2024/01/11 10:11:28;;;;;;;50.87;28.07;;;;;;;;;;4994443;28;20214;-81
2024/01/11 10:13:57;;;;;;;50.80;28.60;;;;;;;;;;4992978;28;20191;-82
2024/01/11 10:16:22;;;;;;;57.37;28.67;;;;;;;;;;4992812;28;20208;-79
2024/01/11 10:18:48;;;;;;;53.10;28.87;;;;;;;;;;4993488;28;20179;-81
2024/01/11 10:21:13;;;;;;;46.33;26.57;;;;;;;;;;4996966;28;20179;-80
2024/01/11 10:23:39;;;;;;;37.97;22.37;;;;;;;;;;4994786;28;20202;-80
2024/01/11 10:26:05;;;;;;;64.23;33.00;;;;;;;;;;5004443;28;20225;-78
2024/01/11 10:28:30;;;;;;;48.23;27.70;;;;;;;;;;4991399;28;20203;-80
2024/01/11 10:30:56;;;;;;;32.47;21.20;;;;;;;;;;4996957;28;20183;-80
2024/01/11 10:33:22;;;;;;;48.43;27.47;;;;;;;;;;4991000;28;20205;-78
2024/01/11 10:35:50;;;;;;;54.50;30.57;;;;;;;;;;4986437;28;20291;-78
2024/01/11 10:38:16;;;;;;;59.63;35.70;;;;;;;;;;4990522;28;20204;-79
2024/01/11 10:40:41;;;;;;;54.10;29.27;;;;;;;;;;4997205;28;20207;-77
2024/01/11 10:43:11;;;;;;;48.00;28.10;;;;;;;;;;4997919;28;20191;-79
2024/01/11 10:45:38;;;;;;;48.80;27.73;;;;;;;;;;4996213;28;20180;-78
2024/01/11 10:48:06;;;;;;;48.87;29.53;;;;;;;;;;5002456;28;20187;-78
2024/01/11 10:50:34;;;;;;;49.87;27.63;;;;;;;;;;5015434;28;20321;-77
2024/01/11 10:53:14;;;;;;;40.90;25.33;;;;;;;;;;5001223;28;20178;-77
2024/01/11 10:55:40;;;;;;;43.10;24.90;;;;;;;;;;4997897;28;20195;-77
2024/01/11 10:58:06;;;;;;;38.83;22.40;;;;;;;;;;4996577;28;20179;-76
2024/01/11 11:00:32;;;;;;;40.33;21.40;;;;;;;;;;4991584;28;20180;-76
2024/01/11 11:03:01;;;;;;;40.47;26.77;;;;;;;;;;4996672;28;20171;-76
2024/01/11 11:05:27;;;;;;;46.00;26.73;;;;;;;;;;4996924;28;20184;-76
2024/01/11 11:07:54;;;;;;;35.00;21.17;;;;;;;;;;4992749;28;20175;-77
2024/01/11 11:10:19;;;;;;;42.40;24.07;;;;;;;;;;4993554;28;20199;-76
2024/01/11 11:12:48;;;;;;;36.03;21.93;;;;;;;;;;5001997;28;20171;-76
2024/01/11 11:15:13;;;;;;;39.53;25.43;;;;;;;;;;4997548;28;20180;-76
2024/01/11 11:17:39;;;;;;;38.63;26.23;;;;;;;;;;4993987;28;20198;-77
2024/01/11 11:20:07;;;;;;;47.83;26.57;;;;;;;;;;4990863;28;20187;-77
2024/01/11 11:22:36;;;;;;;46.63;29.10;;;;;;;;;;4994917;28;20179;-77
2024/01/11 11:25:07;;;;;;;49.97;27.57;;;;;;;;;;4985643;28;20191;-78
2024/01/11 11:27:33;;;;;;;44.20;25.00;;;;;;;;;;4993645;28;20184;-77
2024/01/11 11:29:58;;;;;;;38.33;23.27;;;;;;;;;;4993135;28;20238;-77
2024/01/11 11:32:42;;;;;;;38.93;20.03;;;;;;;;;;4991558;28;20172;-77
2024/01/11 11:35:08;;;;;;;34.73;21.57;;;;;;;;;;4983790;28;20199;-75
2024/01/11 11:37:35;;;;;;;32.47;20.87;;;;;;;;;;4989899;28;20175;-75
2024/01/11 11:40:01;;;;;;;28.20;17.73;;;;;;;;;;4992244;28;20210;-76
2024/01/11 11:42:28;;;;;;;31.67;22.23;;;;;;;;;;5000146;28;20207;-76
2024/01/11 11:44:53;;;;;;;33.43;21.00;;;;;;;;;;4994534;28;20175;-77
2024/01/11 11:47:20;;;;;;;34.37;19.83;;;;;;;;;;4995947;28;20271;-74
2024/01/11 11:49:59;;;;;;;30.97;20.90;;;;;;;;;;5004216;28;20231;-78
2024/01/11 11:52:24;;;;;;;44.07;24.50;;;;;;;;;;4995473;28;20184;-78
2024/01/11 11:54:50;;;;;;;34.40;20.63;;;;;;;;;;4997666;28;20283;-79
2024/01/11 11:57:16;;;;;;;30.30;20.40;;;;;;;;;;4992485;28;20250;-79
2024/01/11 11:59:42;;;;;;;53.93;22.00;;;;;;;;;;4996335;28;20168;-80
2024/01/11 12:02:16;;;;;;;35.37;19.87;;;;;;;;;;4991168;28;20191;-80
2024/01/11 12:04:45;;;;;;;35.43;20.30;;;;;;;;;;4996914;28;20171;-80
2024/01/11 12:07:11;;;;;;;37.97;24.30;;;;;;;;;;4990559;28;20188;-80
2024/01/11 12:09:36;;;;;;;32.07;19.80;;;;;;;;;;4993486;28;20335;-80
2024/01/11 12:12:03;;;;;;;32.93;20.13;;;;;;;;;;4997389;28;20207;-80
2024/01/11 12:14:28;;;;;;;34.63;19.83;;;;;;;;;;4999078;28;20199;-79
2024/01/11 12:16:59;;;;;;;34.47;21.47;;;;;;;;;;4995377;28;20188;-79
2024/01/11 12:19:25;;;;;;;30.37;18.07;;;;;;;;;;4992407;28;20172;-79
2024/01/11 12:21:50;;;;;;;40.80;24.20;;;;;;;;;;4991654;28;20173;-78
2024/01/11 12:24:16;;;;;;;34.63;22.77;;;;;;;;;;4995476;28;20176;-79
2024/01/11 12:26:42;;;;;;;45.97;24.13;;;;;;;;;;4993454;28;20184;-79
2024/01/11 12:29:08;;;;;;;42.07;21.80;;;;;;;;;;4984967;28;20181;-79
2024/01/11 12:31:34;;;;;;;31.77;21.07;;;;;;;;;;4994092;28;20184;-79
2024/01/11 12:33:59;;;;;;;31.17;20.03;;;;;;;;;;4993585;28;20210;-77
2024/01/11 12:36:25;;;;;;;40.00;22.83;;;;;;;;;;4990498;28;20211;-79
2024/01/11 12:38:50;;;;;;;30.93;19.37;;;;;;;;;;4996247;28;20180;-79
2024/01/11 12:41:16;;;;;;;31.63;21.37;;;;;;;;;;5003479;28;20177;-78
2024/01/11 12:43:41;;;;;;;31.90;20.53;;;;;;;;;;5010784;28;20234;-79
2024/01/11 12:46:07;;;;;;;41.10;18.80;;;;;;;;;;5019218;28;20186;-79
2024/01/11 12:48:32;;;;;;;34.37;20.57;;;;;;;;;;5006893;28;20180;-78
2024/01/11 12:50:58;;;;;;;27.93;18.00;;;;;;;;;;5000419;28;20307;-79
2024/01/11 12:53:23;;;;;;;26.33;17.37;;;;;;;;;;5004269;28;20215;-79
2024/01/11 12:56:01;;;;;;;13.10;6.93;;;;;;;;;;5018706;28;20218;-81
2024/01/11 12:58:26;;;;;;;21.97;10.77;;;;;;;;;;4998993;28;20195;-80
2024/01/11 13:00:51;;;;;;;23.80;14.70;;;;;;;;;;4997522;28;20260;-80
2024/01/11 13:03:19;;;;;;;35.17;15.53;;;;;;;;;;5003498;28;20191;-78
2024/01/11 13:05:44;;;;;;;21.77;12.77;;;;;;;;;;4999136;28;20201;-80
2024/01/11 13:08:10;;;;;;;22.37;11.93;;;;;;;;;;4997445;28;20601;-80
2024/01/11 13:10:35;;;;;;;23.80;13.73;;;;;;;;;;4995185;28;20184;-80
2024/01/11 13:13:01;;;;;;;21.67;13.17;;;;;;;;;;4996544;28;20192;-80
2024/01/11 13:15:26;;;;;;;19.37;12.70;;;;;;;;;;4993816;28;20196;-80
2024/01/11 13:17:53;;;;;;;27.20;16.80;;;;;;;;;;5000631;28;20242;-79
2024/01/11 13:20:18;;;;;;;27.53;16.33;;;;;;;;;;5000152;28;20176;-79
2024/01/11 13:22:43;;;;;;;21.53;12.97;;;;;;;;;;4998558;28;20164;-79
2024/01/11 13:25:09;;;;;;;30.27;17.27;;;;;;;;;;5002209;28;20185;-78
2024/01/11 13:27:34;;;;;;;24.40;14.43;;;;;;;;;;4995186;28;20169;-77
2024/01/11 13:30:00;;;;;;;18.60;10.80;;;;;;;;;;4989416;28;20207;-76
2024/01/11 13:32:25;;;;;;;19.43;12.77;;;;;;;;;;4994327;28;20173;-78
2024/01/11 13:34:53;;;;;;;20.83;13.47;;;;;;;;;;5001779;28;20179;-78
2024/01/11 13:37:19;;;;;;;15.53;9.10;;;;;;;;;;4998722;28;20201;-78
2024/01/11 13:39:44;;;;;;;21.67;13.17;;;;;;;;;;5004195;28;20175;-78
2024/01/11 13:42:10;;;;;;;23.20;14.13;;;;;;;;;;5019709;28;20188;-78
2024/01/11 13:44:36;;;;;;;24.37;13.67;;;;;;;;;;5001269;28;20224;-78
2024/01/11 13:47:01;;;;;;;24.37;15.37;;;;;;;;;;5003793;28;20180;-78
2024/01/11 13:49:26;;;;;;;23.53;13.00;;;;;;;;;;5001765;28;20228;-78
2024/01/11 13:51:52;;;;;;;20.03;12.77;;;;;;;;;;5001827;28;20211;-79
2024/01/11 13:54:17;;;;;;;33.53;18.73;;;;;;;;;;4999963;28;20230;-75
2024/01/11 13:56:42;;;;;;;27.93;19.20;;;;;;;;;;4989718;28;20347;-73
2024/01/11 13:59:07;;;;;;;31.77;18.33;;;;;;;;;;4991475;28;20187;-73
2024/01/11 14:01:32;;;;;;;26.33;15.60;;;;;;;;;;4998938;28;20173;-73
2024/01/11 14:03:58;;;;;;;29.23;15.53;;;;;;;;;;4995617;28;20173;-73
2024/01/11 14:06:23;;;;;;;24.73;15.73;;;;;;;;;;4991864;28;20192;-74